sensor_id;sensor_type;location;lat;lon;timestamp;P1;durP1;ratioP1;P2;durP2;ratioP2
25950;SDS011;13748;52.240;6.002;2023-04-03T00:00:59;4.30;;;2.30;;
25950;SDS011;13748;52.240;6.002;2023-04-03T00:03:26;3.97;;;2.20;;
25950;SDS011;13748;52.240;6.002;2023-04-03T00:05:53;5.43;;;2.47;;
25950;SDS011;13748;52.240;6.002;2023-04-03T00:08:20;4.27;;;2.50;;
25950;SDS011;13748;52.240;6.002;2023-04-03T00:10:48;2.67;;;2.30;;
25950;SDS011;13748;52.240;6.002;2023-04-03T00:13:15;5.70;;;2.40;;
25950;SDS011;13748;52.240;6.002;2023-04-03T00:15:42;7.43;;;2.80;;
25950;SDS011;13748;52.240;6.002;2023-04-03T00:18:10;3.07;;;2.23;;
25950;SDS011;13748;52.240;6.002;2023-04-03T00:20:37;5.07;;;2.70;;
25950;SDS011;13748;52.240;6.002;2023-04-03T00:23:04;4.07;;;2.67;;
25950;SDS011;13748;52.240;6.002;2023-04-03T00:25:31;3.37;;;2.30;;
25950;SDS011;13748;52.240;6.002;2023-04-03T00:27:58;4.37;;;2.30;;
25950;SDS011;13748;52.240;6.002;2023-04-03T00:30:25;5.83;;;2.97;;
25950;SDS011;13748;52.240;6.002;2023-04-03T00:32:52;3.33;;;2.30;;
25950;SDS011;13748;52.240;6.002;2023-04-03T00:35:19;5.47;;;2.50;;
25950;SDS011;13748;52.240;6.002;2023-04-03T00:37:47;2.70;;;2.07;;
25950;SDS011;13748;52.240;6.002;2023-04-03T00:40:14;5.57;;;2.50;;
25950;SDS011;13748;52.240;6.002;2023-04-03T00:42:43;4.77;;;2.40;;
25950;SDS011;13748;52.240;6.002;2023-04-03T00:47:38;4.80;;;2.33;;
25950;SDS011;13748;52.240;6.002;2023-04-03T00:50:07;3.23;;;2.63;;
25950;SDS011;13748;52.240;6.002;2023-04-03T00:52:34;3.97;;;2.50;;
25950;SDS011;13748;52.240;6.002;2023-04-03T00:55:02;4.57;;;2.80;;
25950;SDS011;13748;52.240;6.002;2023-04-03T00:57:31;5.30;;;2.53;;
25950;SDS011;13748;52.240;6.002;2023-04-03T01:00:00;4.30;;;2.60;;
25950;SDS011;13748;52.240;6.002;2023-04-03T01:02:32;3.47;;;2.47;;
25950;SDS011;13748;52.240;6.002;2023-04-03T01:04:59;3.07;;;2.80;;
25950;SDS011;13748;52.240;6.002;2023-04-03T01:07:27;5.60;;;2.60;;
25950;SDS011;13748;52.240;6.002;2023-04-03T01:09:57;4.70;;;2.60;;
25950;SDS011;13748;52.240;6.002;2023-04-03T01:12:28;4.53;;;2.43;;
25950;SDS011;13748;52.240;6.002;2023-04-03T01:14:57;6.57;;;4.33;;
25950;SDS011;13748;52.240;6.002;2023-04-03T01:17:37;3.93;;;2.70;;
25950;SDS011;13748;52.240;6.002;2023-04-03T01:25:30;6.03;;;2.83;;
25950;SDS011;13748;52.240;6.002;2023-04-03T01:27:56;5.07;;;2.70;;
25950;SDS011;13748;52.240;6.002;2023-04-03T01:30:25;4.60;;;2.77;;
25950;SDS011;13748;52.240;6.002;2023-04-03T01:32:57;7.30;;;2.90;;
25950;SDS011;13748;52.240;6.002;2023-04-03T01:35:24;4.70;;;2.60;;
25950;SDS011;13748;52.240;6.002;2023-04-03T01:37:53;6.83;;;2.63;;
25950;SDS011;13748;52.240;6.002;2023-04-03T01:40:20;4.30;;;3.20;;
25950;SDS011;13748;52.240;6.002;2023-04-03T01:42:47;4.67;;;2.90;;
25950;SDS011;13748;52.240;6.002;2023-04-03T01:45:14;4.90;;;2.80;;
25950;SDS011;13748;52.240;6.002;2023-04-03T01:47:41;5.87;;;2.83;;
25950;SDS011;13748;52.240;6.002;2023-04-03T01:50:08;4.27;;;3.87;;
25950;SDS011;13748;52.240;6.002;2023-04-03T01:52:35;4.20;;;2.90;;
25950;SDS011;13748;52.240;6.002;2023-04-03T01:55:02;5.37;;;2.80;;
25950;SDS011;13748;52.240;6.002;2023-04-03T01:57:29;6.43;;;3.23;;
25950;SDS011;13748;52.240;6.002;2023-04-03T01:59:55;6.27;;;3.97;;
25950;SDS011;13748;52.240;6.002;2023-04-03T02:02:22;3.87;;;2.93;;
25950;SDS011;13748;52.240;6.002;2023-04-03T02:04:52;3.83;;;3.03;;
25950;SDS011;13748;52.240;6.002;2023-04-03T02:07:18;4.00;;;2.93;;
25950;SDS011;13748;52.240;6.002;2023-04-03T02:09:45;7.43;;;3.33;;
25950;SDS011;13748;52.240;6.002;2023-04-03T02:12:12;5.23;;;3.40;;
25950;SDS011;13748;52.240;6.002;2023-04-03T02:14:39;4.80;;;3.13;;
25950;SDS011;13748;52.240;6.002;2023-04-03T02:17:06;4.23;;;2.80;;
25950;SDS011;13748;52.240;6.002;2023-04-03T02:19:35;6.83;;;3.10;;
25950;SDS011;13748;52.240;6.002;2023-04-03T02:22:02;8.10;;;3.40;;
25950;SDS011;13748;52.240;6.002;2023-04-03T02:24:30;8.10;;;3.37;;
25950;SDS011;13748;52.240;6.002;2023-04-03T02:26:57;6.33;;;3.53;;
25950;SDS011;13748;52.240;6.002;2023-04-03T02:29:24;5.70;;;3.20;;
25950;SDS011;13748;52.240;6.002;2023-04-03T02:31:51;5.40;;;3.20;;
25950;SDS011;13748;52.240;6.002;2023-04-03T02:34:18;6.40;;;3.40;;
25950;SDS011;13748;52.240;6.002;2023-04-03T02:36:44;5.80;;;3.53;;
25950;SDS011;13748;52.240;6.002;2023-04-03T02:39:11;6.50;;;3.97;;
25950;SDS011;13748;52.240;6.002;2023-04-03T02:41:38;5.50;;;3.10;;
25950;SDS011;13748;52.240;6.002;2023-04-03T02:44:09;6.57;;;3.27;;
25950;SDS011;13748;52.240;6.002;2023-04-03T02:46:36;12.63;;;4.10;;
25950;SDS011;13748;52.240;6.002;2023-04-03T02:49:03;8.30;;;3.70;;
25950;SDS011;13748;52.240;6.002;2023-04-03T02:51:30;5.33;;;3.40;;
25950;SDS011;13748;52.240;6.002;2023-04-03T02:53:58;4.87;;;3.57;;
25950;SDS011;13748;52.240;6.002;2023-04-03T02:56:24;7.57;;;3.63;;
25950;SDS011;13748;52.240;6.002;2023-04-03T02:58:52;4.97;;;3.50;;
25950;SDS011;13748;52.240;6.002;2023-04-03T03:01:20;6.97;;;3.50;;
25950;SDS011;13748;52.240;6.002;2023-04-03T03:03:47;8.73;;;4.40;;
25950;SDS011;13748;52.240;6.002;2023-04-03T03:06:14;5.53;;;3.90;;
25950;SDS011;13748;52.240;6.002;2023-04-03T03:08:42;8.97;;;3.60;;
25950;SDS011;13748;52.240;6.002;2023-04-03T03:11:10;9.53;;;4.03;;
25950;SDS011;13748;52.240;6.002;2023-04-03T03:13:37;5.40;;;3.43;;
25950;SDS011;13748;52.240;6.002;2023-04-03T03:16:04;7.77;;;3.90;;
25950;SDS011;13748;52.240;6.002;2023-04-03T03:18:32;7.93;;;3.40;;
25950;SDS011;13748;52.240;6.002;2023-04-03T03:21:00;6.83;;;4.03;;
25950;SDS011;13748;52.240;6.002;2023-04-03T03:23:29;5.17;;;3.40;;
25950;SDS011;13748;52.240;6.002;2023-04-03T03:26:02;6.43;;;3.47;;
25950;SDS011;13748;52.240;6.002;2023-04-03T03:28:31;4.33;;;3.77;;
25950;SDS011;13748;52.240;6.002;2023-04-03T03:30:59;5.83;;;3.93;;
25950;SDS011;13748;52.240;6.002;2023-04-03T03:33:26;7.23;;;4.13;;
25950;SDS011;13748;52.240;6.002;2023-04-03T03:35:54;8.93;;;3.80;;
25950;SDS011;13748;52.240;6.002;2023-04-03T03:38:21;6.80;;;4.10;;
25950;SDS011;13748;52.240;6.002;2023-04-03T03:40:49;6.67;;;3.97;;
25950;SDS011;13748;52.240;6.002;2023-04-03T03:43:17;9.27;;;4.30;;
25950;SDS011;13748;52.240;6.002;2023-04-03T03:45:44;10.90;;;4.23;;
25950;SDS011;13748;52.240;6.002;2023-04-03T03:48:15;7.93;;;3.97;;
25950;SDS011;13748;52.240;6.002;2023-04-03T03:50:42;10.10;;;4.30;;
25950;SDS011;13748;52.240;6.002;2023-04-03T03:53:09;9.20;;;4.70;;
25950;SDS011;13748;52.240;6.002;2023-04-03T03:55:35;8.73;;;4.10;;
25950;SDS011;13748;52.240;6.002;2023-04-03T03:58:03;6.10;;;3.93;;
25950;SDS011;13748;52.240;6.002;2023-04-03T04:00:29;8.40;;;4.50;;
25950;SDS011;13748;52.240;6.002;2023-04-03T04:02:56;8.87;;;4.53;;
25950;SDS011;13748;52.240;6.002;2023-04-03T04:05:24;11.27;;;5.17;;
25950;SDS011;13748;52.240;6.002;2023-04-03T04:07:51;6.23;;;4.43;;
25950;SDS011;13748;52.240;6.002;2023-04-03T04:10:18;9.83;;;3.97;;
25950;SDS011;13748;52.240;6.002;2023-04-03T04:12:45;7.70;;;4.63;;
25950;SDS011;13748;52.240;6.002;2023-04-03T04:15:11;6.27;;;4.17;;
25950;SDS011;13748;52.240;6.002;2023-04-03T04:17:38;7.77;;;4.87;;
25950;SDS011;13748;52.240;6.002;2023-04-03T04:20:05;7.67;;;4.23;;
25950;SDS011;13748;52.240;6.002;2023-04-03T04:22:32;11.03;;;5.17;;
25950;SDS011;13748;52.240;6.002;2023-04-03T04:24:59;7.40;;;4.90;;
25950;SDS011;13748;52.240;6.002;2023-04-03T04:27:26;10.13;;;5.17;;
25950;SDS011;13748;52.240;6.002;2023-04-03T04:29:52;6.30;;;4.07;;
25950;SDS011;13748;52.240;6.002;2023-04-03T04:32:19;10.93;;;4.50;;
25950;SDS011;13748;52.240;6.002;2023-04-03T04:34:46;8.77;;;4.23;;
25950;SDS011;13748;52.240;6.002;2023-04-03T04:37:13;7.50;;;4.43;;
25950;SDS011;13748;52.240;6.002;2023-04-03T04:39:40;9.63;;;4.70;;
25950;SDS011;13748;52.240;6.002;2023-04-03T04:42:07;8.57;;;5.47;;
25950;SDS011;13748;52.240;6.002;2023-04-03T04:44:41;6.63;;;4.93;;
25950;SDS011;13748;52.240;6.002;2023-04-03T04:47:08;15.27;;;5.53;;
25950;SDS011;13748;52.240;6.002;2023-04-03T04:49:35;12.30;;;5.47;;
25950;SDS011;13748;52.240;6.002;2023-04-03T04:52:02;8.33;;;5.43;;
25950;SDS011;13748;52.240;6.002;2023-04-03T04:54:29;8.83;;;5.20;;
25950;SDS011;13748;52.240;6.002;2023-04-03T04:56:55;11.17;;;5.70;;
25950;SDS011;13748;52.240;6.002;2023-04-03T04:59:22;10.33;;;5.50;;
25950;SDS011;13748;52.240;6.002;2023-04-03T05:01:49;10.30;;;5.10;;
25950;SDS011;13748;52.240;6.002;2023-04-03T05:04:16;8.47;;;4.73;;
25950;SDS011;13748;52.240;6.002;2023-04-03T05:06:43;12.60;;;5.50;;
25950;SDS011;13748;52.240;6.002;2023-04-03T05:09:10;8.97;;;4.67;;
25950;SDS011;13748;52.240;6.002;2023-04-03T05:11:37;14.07;;;5.30;;
25950;SDS011;13748;52.240;6.002;2023-04-03T05:14:04;13.13;;;5.60;;
25950;SDS011;13748;52.240;6.002;2023-04-03T05:16:33;16.53;;;8.40;;
25950;SDS011;13748;52.240;6.002;2023-04-03T05:19:00;11.80;;;5.73;;
25950;SDS011;13748;52.240;6.002;2023-04-03T05:21:26;13.30;;;5.83;;
25950;SDS011;13748;52.240;6.002;2023-04-03T05:24:00;11.93;;;6.10;;
25950;SDS011;13748;52.240;6.002;2023-04-03T05:26:30;14.30;;;5.70;;
25950;SDS011;13748;52.240;6.002;2023-04-03T05:28:57;12.30;;;5.77;;
25950;SDS011;13748;52.240;6.002;2023-04-03T05:31:24;13.37;;;6.60;;
25950;SDS011;13748;52.240;6.002;2023-04-03T05:33:51;9.33;;;6.60;;
25950;SDS011;13748;52.240;6.002;2023-04-03T05:36:18;10.73;;;6.30;;
25950;SDS011;13748;52.240;6.002;2023-04-03T05:38:45;10.67;;;6.10;;
25950;SDS011;13748;52.240;6.002;2023-04-03T05:41:13;9.20;;;5.33;;
25950;SDS011;13748;52.240;6.002;2023-04-03T05:43:40;12.87;;;6.57;;
25950;SDS011;13748;52.240;6.002;2023-04-03T05:46:17;13.13;;;6.30;;
25950;SDS011;13748;52.240;6.002;2023-04-03T05:48:47;11.67;;;5.87;;
25950;SDS011;13748;52.240;6.002;2023-04-03T05:51:15;9.80;;;5.57;;
25950;SDS011;13748;52.240;6.002;2023-04-03T05:53:44;12.67;;;6.00;;
25950;SDS011;13748;52.240;6.002;2023-04-03T05:56:12;12.83;;;5.93;;
25950;SDS011;13748;52.240;6.002;2023-04-03T05:58:39;10.97;;;5.90;;
25950;SDS011;13748;52.240;6.002;2023-04-03T06:01:06;10.03;;;5.43;;
25950;SDS011;13748;52.240;6.002;2023-04-03T06:03:33;8.23;;;5.47;;
25950;SDS011;13748;52.240;6.002;2023-04-03T06:06:03;11.00;;;5.90;;
25950;SDS011;13748;52.240;6.002;2023-04-03T06:08:31;10.17;;;5.30;;
25950;SDS011;13748;52.240;6.002;2023-04-03T06:10:58;11.27;;;5.83;;
25950;SDS011;13748;52.240;6.002;2023-04-03T06:13:24;8.47;;;5.87;;
25950;SDS011;13748;52.240;6.002;2023-04-03T06:15:51;7.77;;;5.47;;
25950;SDS011;13748;52.240;6.002;2023-04-03T06:18:18;11.90;;;5.40;;
25950;SDS011;13748;52.240;6.002;2023-04-03T06:20:45;13.37;;;5.20;;
25950;SDS011;13748;52.240;6.002;2023-04-03T06:23:13;13.90;;;5.20;;
25950;SDS011;13748;52.240;6.002;2023-04-03T06:25:40;9.03;;;5.07;;
25950;SDS011;13748;52.240;6.002;2023-04-03T06:28:08;7.47;;;5.03;;
25950;SDS011;13748;52.240;6.002;2023-04-03T06:30:36;8.13;;;4.40;;
25950;SDS011;13748;52.240;6.002;2023-04-03T06:33:04;7.20;;;4.60;;
25950;SDS011;13748;52.240;6.002;2023-04-03T06:35:31;5.73;;;4.47;;
25950;SDS011;13748;52.240;6.002;2023-04-03T06:37:57;8.17;;;4.90;;
25950;SDS011;13748;52.240;6.002;2023-04-03T06:40:25;9.60;;;4.37;;
25950;SDS011;13748;52.240;6.002;2023-04-03T06:42:52;9.80;;;4.00;;
25950;SDS011;13748;52.240;6.002;2023-04-03T06:45:19;11.07;;;4.70;;
25950;SDS011;13748;52.240;6.002;2023-04-03T06:47:47;8.77;;;4.00;;
25950;SDS011;13748;52.240;6.002;2023-04-03T06:50:14;10.30;;;4.20;;
25950;SDS011;13748;52.240;6.002;2023-04-03T06:52:41;8.43;;;4.07;;
25950;SDS011;13748;52.240;6.002;2023-04-03T06:55:08;14.40;;;4.37;;
25950;SDS011;13748;52.240;6.002;2023-04-03T06:57:36;10.73;;;5.37;;
25950;SDS011;13748;52.240;6.002;2023-04-03T07:00:03;9.53;;;4.27;;
25950;SDS011;13748;52.240;6.002;2023-04-03T07:02:32;7.87;;;3.60;;
25950;SDS011;13748;52.240;6.002;2023-04-03T07:04:59;7.97;;;3.30;;
25950;SDS011;13748;52.240;6.002;2023-04-03T07:07:26;5.67;;;2.70;;
25950;SDS011;13748;52.240;6.002;2023-04-03T07:09:53;8.53;;;2.80;;
25950;SDS011;13748;52.240;6.002;2023-04-03T07:12:19;3.33;;;2.10;;
25950;SDS011;13748;52.240;6.002;2023-04-03T07:14:46;4.07;;;2.27;;
25950;SDS011;13748;52.240;6.002;2023-04-03T07:17:13;9.23;;;3.10;;
25950;SDS011;13748;52.240;6.002;2023-04-03T07:19:40;5.87;;;2.00;;
25950;SDS011;13748;52.240;6.002;2023-04-03T07:22:07;6.13;;;2.20;;
25950;SDS011;13748;52.240;6.002;2023-04-03T07:24:34;5.53;;;2.10;;
25950;SDS011;13748;52.240;6.002;2023-04-03T07:27:01;5.37;;;2.23;;
25950;SDS011;13748;52.240;6.002;2023-04-03T07:29:28;6.03;;;2.17;;
25950;SDS011;13748;52.240;6.002;2023-04-03T07:31:56;4.30;;;1.87;;
25950;SDS011;13748;52.240;6.002;2023-04-03T07:34:26;4.60;;;1.98;;
25950;SDS011;13748;52.240;6.002;2023-04-03T07:36:53;3.20;;;2.15;;
25950;SDS011;13748;52.240;6.002;2023-04-03T07:39:19;4.10;;;1.92;;
25950;SDS011;13748;52.240;6.002;2023-04-03T07:41:46;4.30;;;1.85;;
25950;SDS011;13748;52.240;6.002;2023-04-03T07:44:13;6.15;;;1.77;;
25950;SDS011;13748;52.240;6.002;2023-04-03T07:46:40;3.20;;;1.70;;
25950;SDS011;13748;52.240;6.002;2023-04-03T07:49:08;3.90;;;1.87;;
25950;SDS011;13748;52.240;6.002;2023-04-03T07:51:35;3.38;;;1.70;;
25950;SDS011;13748;52.240;6.002;2023-04-03T07:54:02;5.53;;;2.03;;
25950;SDS011;13748;52.240;6.002;2023-04-03T07:56:30;7.20;;;2.15;;
25950;SDS011;13748;52.240;6.002;2023-04-03T07:58:57;3.58;;;1.77;;
25950;SDS011;13748;52.240;6.002;2023-04-03T08:01:24;4.70;;;2.35;;
25950;SDS011;13748;52.240;6.002;2023-04-03T08:03:51;3.25;;;1.95;;
25950;SDS011;13748;52.240;6.002;2023-04-03T08:06:18;2.80;;;1.30;;
25950;SDS011;13748;52.240;6.002;2023-04-03T08:09:03;3.13;;;1.67;;
25950;SDS011;13748;52.240;6.002;2023-04-03T08:11:30;4.03;;;1.65;;
25950;SDS011;13748;52.240;6.002;2023-04-03T08:13:57;3.77;;;1.70;;
25950;SDS011;13748;52.240;6.002;2023-04-03T08:16:24;3.13;;;1.30;;
25950;SDS011;13748;52.240;6.002;2023-04-03T08:18:54;5.07;;;1.70;;
25950;SDS011;13748;52.240;6.002;2023-04-03T08:21:21;3.47;;;1.50;;
25950;SDS011;13748;52.240;6.002;2023-04-03T08:23:49;2.50;;;1.20;;
25950;SDS011;13748;52.240;6.002;2023-04-03T08:26:18;2.83;;;1.40;;
25950;SDS011;13748;52.240;6.002;2023-04-03T08:28:47;3.33;;;1.33;;
25950;SDS011;13748;52.240;6.002;2023-04-03T08:31:16;3.23;;;1.50;;
25950;SDS011;13748;52.240;6.002;2023-04-03T08:33:46;3.43;;;1.63;;
25950;SDS011;13748;52.240;6.002;2023-04-03T08:36:19;3.57;;;1.17;;
25950;SDS011;13748;52.240;6.002;2023-04-03T08:38:51;2.37;;;1.23;;
25950;SDS011;13748;52.240;6.002;2023-04-03T08:44:13;2.33;;;1.20;;
25950;SDS011;13748;52.240;6.002;2023-04-03T08:49:41;3.17;;;1.40;;
25950;SDS011;13748;52.240;6.002;2023-04-03T08:52:23;2.87;;;1.33;;
25950;SDS011;13748;52.240;6.002;2023-04-03T08:55:37;3.87;;;1.20;;
25950;SDS011;13748;52.240;6.002;2023-04-03T08:58:04;2.63;;;1.07;;
25950;SDS011;13748;52.240;6.002;2023-04-03T09:01:16;2.17;;;1.10;;
25950;SDS011;13748;52.240;6.002;2023-04-03T09:03:51;2.77;;;1.07;;
25950;SDS011;13748;52.240;6.002;2023-04-03T09:11:26;3.43;;;1.20;;
25950;SDS011;13748;52.240;6.002;2023-04-03T09:14:32;3.70;;;1.03;;
25950;SDS011;13748;52.240;6.002;2023-04-03T09:17:04;1.03;;;0.93;;
25950;SDS011;13748;52.240;6.002;2023-04-03T09:22:46;3.67;;;0.97;;
25950;SDS011;13748;52.240;6.002;2023-04-03T09:25:25;7.10;;;1.60;;
25950;SDS011;13748;52.240;6.002;2023-04-03T09:27:57;1.77;;;0.87;;
25950;SDS011;13748;52.240;6.002;2023-04-03T09:30:26;1.50;;;0.90;;
25950;SDS011;13748;52.240;6.002;2023-04-03T09:32:54;1.77;;;0.90;;
25950;SDS011;13748;52.240;6.002;2023-04-03T09:35:27;4.43;;;1.33;;
25950;SDS011;13748;52.240;6.002;2023-04-03T09:38:15;1.50;;;1.00;;
25950;SDS011;13748;52.240;6.002;2023-04-03T09:40:45;2.20;;;1.00;;
25950;SDS011;13748;52.240;6.002;2023-04-03T09:45:44;0.80;;;0.80;;
25950;SDS011;13748;52.240;6.002;2023-04-03T09:53:32;2.13;;;1.00;;
25950;SDS011;13748;52.240;6.002;2023-04-03T09:58:45;2.27;;;1.20;;
25950;SDS011;13748;52.240;6.002;2023-04-03T10:01:27;2.23;;;0.90;;
25950;SDS011;13748;52.240;6.002;2023-04-03T10:04:03;0.80;;;0.80;;
25950;SDS011;13748;52.240;6.002;2023-04-03T10:06:32;1.73;;;1.10;;
25950;SDS011;13748;52.240;6.002;2023-04-03T10:09:26;3.23;;;1.17;;
25950;SDS011;13748;52.240;6.002;2023-04-03T10:14:28;5.97;;;1.07;;
25950;SDS011;13748;52.240;6.002;2023-04-03T10:19:39;2.67;;;1.00;;
25950;SDS011;13748;52.240;6.002;2023-04-03T10:22:23;5.10;;;1.10;;
25950;SDS011;13748;52.240;6.002;2023-04-03T10:27:54;1.97;;;1.00;;
25950;SDS011;13748;52.240;6.002;2023-04-03T10:36:08;1.63;;;0.87;;
25950;SDS011;13748;52.240;6.002;2023-04-03T10:38:51;4.53;;;0.90;;
25950;SDS011;13748;52.240;6.002;2023-04-03T10:41:40;2.97;;;0.93;;
25950;SDS011;13748;52.240;6.002;2023-04-03T10:44:37;4.13;;;0.90;;
25950;SDS011;13748;52.240;6.002;2023-04-03T10:47:26;2.80;;;1.20;;
25950;SDS011;13748;52.240;6.002;2023-04-03T10:52:56;1.63;;;1.00;;
25950;SDS011;13748;52.240;6.002;2023-04-03T10:58:15;2.47;;;1.27;;
25950;SDS011;13748;52.240;6.002;2023-04-03T11:00:48;3.60;;;1.10;;
25950;SDS011;13748;52.240;6.002;2023-04-03T11:03:35;3.00;;;1.47;;
25950;SDS011;13748;52.240;6.002;2023-04-03T11:06:08;2.20;;;1.10;;
25950;SDS011;13748;52.240;6.002;2023-04-03T11:11:29;2.87;;;1.30;;
25950;SDS011;13748;52.240;6.002;2023-04-03T11:14:02;1.17;;;1.00;;
25950;SDS011;13748;52.240;6.002;2023-04-03T11:22:34;4.17;;;1.13;;
25950;SDS011;13748;52.240;6.002;2023-04-03T11:27:40;2.80;;;1.20;;
25950;SDS011;13748;52.240;6.002;2023-04-03T11:30:15;2.13;;;1.10;;
25950;SDS011;13748;52.240;6.002;2023-04-03T11:33:32;3.00;;;1.20;;
25950;SDS011;13748;52.240;6.002;2023-04-03T11:36:02;4.17;;;2.23;;
25950;SDS011;13748;52.240;6.002;2023-04-03T11:38:52;2.33;;;1.23;;
25950;SDS011;13748;52.240;6.002;2023-04-03T11:41:27;2.03;;;1.00;;
25950;SDS011;13748;52.240;6.002;2023-04-03T11:44:13;11.67;;;1.70;;
25950;SDS011;13748;52.240;6.002;2023-04-03T11:46:57;6.47;;;1.20;;
25950;SDS011;13748;52.240;6.002;2023-04-03T12:08:47;2.53;;;1.37;;
25950;SDS011;13748;52.240;6.002;2023-04-03T12:19:04;2.67;;;1.10;;
25950;SDS011;13748;52.240;6.002;2023-04-03T12:41:18;4.67;;;1.50;;
25950;SDS011;13748;52.240;6.002;2023-04-03T12:46:58;5.67;;;1.50;;
25950;SDS011;13748;52.240;6.002;2023-04-03T12:49:39;2.70;;;1.30;;
25950;SDS011;13748;52.240;6.002;2023-04-03T12:55:12;2.23;;;1.40;;
25950;SDS011;13748;52.240;6.002;2023-04-03T12:57:44;2.07;;;1.40;;
25950;SDS011;13748;52.240;6.002;2023-04-03T13:00:19;3.93;;;1.50;;
25950;SDS011;13748;52.240;6.002;2023-04-03T13:03:00;3.10;;;1.43;;
25950;SDS011;13748;52.240;6.002;2023-04-03T13:05:31;2.97;;;1.33;;
25950;SDS011;13748;52.240;6.002;2023-04-03T13:08:07;3.63;;;1.40;;
25950;SDS011;13748;52.240;6.002;2023-04-03T13:10:49;5.43;;;1.67;;
25950;SDS011;13748;52.240;6.002;2023-04-03T13:13:23;3.03;;;1.70;;
25950;SDS011;13748;52.240;6.002;2023-04-03T13:15:52;5.23;;;1.30;;
25950;SDS011;13748;52.240;6.002;2023-04-03T13:18:31;3.33;;;1.53;;
25950;SDS011;13748;52.240;6.002;2023-04-03T13:21:04;2.27;;;1.40;;
25950;SDS011;13748;52.240;6.002;2023-04-03T13:23:40;2.53;;;1.40;;
25950;SDS011;13748;52.240;6.002;2023-04-03T13:26:11;2.63;;;1.23;;
25950;SDS011;13748;52.240;6.002;2023-04-03T13:28:39;3.30;;;1.60;;
25950;SDS011;13748;52.240;6.002;2023-04-03T13:36:40;2.90;;;1.93;;
25950;SDS011;13748;52.240;6.002;2023-04-03T13:41:42;2.77;;;1.43;;
25950;SDS011;13748;52.240;6.002;2023-04-03T13:44:44;11.20;;;2.67;;
25950;SDS011;13748;52.240;6.002;2023-04-03T13:49:45;4.47;;;1.67;;
25950;SDS011;13748;52.240;6.002;2023-04-03T13:52:32;4.23;;;1.60;;
25950;SDS011;13748;52.240;6.002;2023-04-03T13:55:17;4.43;;;1.70;;
25950;SDS011;13748;52.240;6.002;2023-04-03T13:57:59;2.60;;;1.50;;
25950;SDS011;13748;52.240;6.002;2023-04-03T14:03:12;3.87;;;1.63;;
25950;SDS011;13748;52.240;6.002;2023-04-03T14:05:50;4.97;;;1.50;;
25950;SDS011;13748;52.240;6.002;2023-04-03T14:08:18;3.00;;;1.70;;
25950;SDS011;13748;52.240;6.002;2023-04-03T14:10:57;2.93;;;1.43;;
25950;SDS011;13748;52.240;6.002;2023-04-03T14:13:29;5.47;;;1.80;;
25950;SDS011;13748;52.240;6.002;2023-04-03T14:15:57;4.30;;;2.03;;
25950;SDS011;13748;52.240;6.002;2023-04-03T14:18:38;2.73;;;1.83;;
25950;SDS011;13748;52.240;6.002;2023-04-03T14:21:05;4.50;;;1.67;;
25950;SDS011;13748;52.240;6.002;2023-04-03T14:23:32;3.23;;;2.40;;
25950;SDS011;13748;52.240;6.002;2023-04-03T14:25:59;3.90;;;1.70;;
25950;SDS011;13748;52.240;6.002;2023-04-03T14:28:26;3.47;;;1.70;;
25950;SDS011;13748;52.240;6.002;2023-04-03T14:30:53;2.70;;;1.57;;
25950;SDS011;13748;52.240;6.002;2023-04-03T14:33:21;3.47;;;1.70;;
25950;SDS011;13748;52.240;6.002;2023-04-03T14:35:48;2.80;;;1.87;;
25950;SDS011;13748;52.240;6.002;2023-04-03T14:40:54;4.43;;;1.57;;
25950;SDS011;13748;52.240;6.002;2023-04-03T14:43:31;2.73;;;1.83;;
25950;SDS011;13748;52.240;6.002;2023-04-03T14:45:58;3.60;;;1.57;;
25950;SDS011;13748;52.240;6.002;2023-04-03T14:48:26;6.07;;;1.57;;
25950;SDS011;13748;52.240;6.002;2023-04-03T14:50:54;3.67;;;1.50;;
25950;SDS011;13748;52.240;6.002;2023-04-03T14:53:31;3.30;;;1.57;;
25950;SDS011;13748;52.240;6.002;2023-04-03T14:56:09;3.60;;;1.70;;
25950;SDS011;13748;52.240;6.002;2023-04-03T14:58:38;3.17;;;1.37;;
25950;SDS011;13748;52.240;6.002;2023-04-03T15:01:05;4.57;;;1.67;;
25950;SDS011;13748;52.240;6.002;2023-04-03T15:03:34;3.23;;;1.87;;
25950;SDS011;13748;52.240;6.002;2023-04-03T15:06:04;5.23;;;1.80;;
25950;SDS011;13748;52.240;6.002;2023-04-03T15:08:31;2.97;;;1.60;;
25950;SDS011;13748;52.240;6.002;2023-04-03T15:10:58;3.57;;;1.70;;
25950;SDS011;13748;52.240;6.002;2023-04-03T15:13:25;3.43;;;1.40;;
25950;SDS011;13748;52.240;6.002;2023-04-03T15:15:52;3.90;;;1.60;;
25950;SDS011;13748;52.240;6.002;2023-04-03T15:18:23;3.50;;;1.73;;
25950;SDS011;13748;52.240;6.002;2023-04-03T15:20:56;4.37;;;1.70;;
25950;SDS011;13748;52.240;6.002;2023-04-03T15:23:22;4.50;;;1.70;;
25950;SDS011;13748;52.240;6.002;2023-04-03T15:25:52;2.77;;;1.73;;
25950;SDS011;13748;52.240;6.002;2023-04-03T15:30:52;3.97;;;1.50;;
25950;SDS011;13748;52.240;6.002;2023-04-03T15:33:19;3.93;;;1.37;;
25950;SDS011;13748;52.240;6.002;2023-04-03T15:35:47;2.23;;;1.20;;
25950;SDS011;13748;52.240;6.002;2023-04-03T15:38:14;2.37;;;1.53;;
25950;SDS011;13748;52.240;6.002;2023-04-03T15:40:41;5.77;;;1.80;;
25950;SDS011;13748;52.240;6.002;2023-04-03T15:43:13;2.70;;;1.53;;
25950;SDS011;13748;52.240;6.002;2023-04-03T15:45:40;3.23;;;1.33;;
25950;SDS011;13748;52.240;6.002;2023-04-03T15:48:09;3.33;;;1.47;;
25950;SDS011;13748;52.240;6.002;2023-04-03T15:50:38;7.87;;;1.63;;
25950;SDS011;13748;52.240;6.002;2023-04-03T15:53:06;2.43;;;1.60;;
25950;SDS011;13748;52.240;6.002;2023-04-03T15:55:34;4.70;;;2.17;;
25950;SDS011;13748;52.240;6.002;2023-04-03T15:58:02;7.43;;;1.87;;
25950;SDS011;13748;52.240;6.002;2023-04-03T16:00:30;4.00;;;1.43;;
25950;SDS011;13748;52.240;6.002;2023-04-03T16:03:00;3.57;;;1.40;;
25950;SDS011;13748;52.240;6.002;2023-04-03T16:05:36;4.57;;;2.03;;
25950;SDS011;13748;52.240;6.002;2023-04-03T16:08:05;2.33;;;1.40;;
25950;SDS011;13748;52.240;6.002;2023-04-03T16:10:36;2.63;;;1.73;;
25950;SDS011;13748;52.240;6.002;2023-04-03T16:13:06;3.80;;;1.90;;
25950;SDS011;13748;52.240;6.002;2023-04-03T16:15:34;4.60;;;1.87;;
25950;SDS011;13748;52.240;6.002;2023-04-03T16:18:02;2.83;;;1.70;;
25950;SDS011;13748;52.240;6.002;2023-04-03T16:20:31;3.97;;;1.50;;
25950;SDS011;13748;52.240;6.002;2023-04-03T16:22:58;4.83;;;1.70;;
25950;SDS011;13748;52.240;6.002;2023-04-03T16:25:27;2.47;;;1.70;;
25950;SDS011;13748;52.240;6.002;2023-04-03T16:27:54;3.47;;;1.67;;
25950;SDS011;13748;52.240;6.002;2023-04-03T16:30:23;3.63;;;1.60;;
25950;SDS011;13748;52.240;6.002;2023-04-03T16:32:50;5.10;;;1.77;;
25950;SDS011;13748;52.240;6.002;2023-04-03T16:35:21;4.20;;;2.07;;
25950;SDS011;13748;52.240;6.002;2023-04-03T16:37:48;3.67;;;1.63;;
25950;SDS011;13748;52.240;6.002;2023-04-03T16:40:15;7.27;;;2.20;;
25950;SDS011;13748;52.240;6.002;2023-04-03T16:42:42;3.63;;;1.60;;
25950;SDS011;13748;52.240;6.002;2023-04-03T16:45:10;3.57;;;1.60;;
25950;SDS011;13748;52.240;6.002;2023-04-03T16:47:37;6.10;;;2.00;;
25950;SDS011;13748;52.240;6.002;2023-04-03T16:50:06;3.73;;;1.70;;
25950;SDS011;13748;52.240;6.002;2023-04-03T16:52:34;2.70;;;1.57;;
25950;SDS011;13748;52.240;6.002;2023-04-03T16:55:01;4.60;;;1.80;;
25950;SDS011;13748;52.240;6.002;2023-04-03T16:57:27;4.03;;;2.03;;
25950;SDS011;13748;52.240;6.002;2023-04-03T16:59:57;2.70;;;1.70;;
25950;SDS011;13748;52.240;6.002;2023-04-03T17:02:24;2.07;;;1.70;;
25950;SDS011;13748;52.240;6.002;2023-04-03T17:04:53;3.80;;;1.77;;
25950;SDS011;13748;52.240;6.002;2023-04-03T17:07:21;2.90;;;1.70;;
25950;SDS011;13748;52.240;6.002;2023-04-03T17:09:49;2.43;;;1.70;;
25950;SDS011;13748;52.240;6.002;2023-04-03T17:12:18;5.63;;;1.97;;
25950;SDS011;13748;52.240;6.002;2023-04-03T17:14:45;4.37;;;1.93;;
25950;SDS011;13748;52.240;6.002;2023-04-03T17:17:22;4.50;;;1.83;;